Lake Sara, Illinois
Current Conditions -  °F | °C
As of 2:35 AM on Friday 19 Dec 2014 (Local Time) from K1H2 Reporting Station
Haze Haze  
Wind Chill: 28°   Ceiling: 1500
Heat Index: 28°   Visibility: 5mi
Dew Point: 24°   Wind: 0mph
Humidity: 84%   Direction: NA
Pressure: 30.3"   Gusts: NA
Location:  39.1183°N, 88.6059°W
Report Text: K1H2 190835Z AUTO 00000KT 5SM HZ OVC015 M02/M05 A3030 RMK AO2 T10231047
Loading
Personal Weather Stations






























Interactive Weather Map New forecast layout! Learn more

10-Day Weather Forecast

Advertisements
Track Severe Weather on mobile